Time;durP1;ratioP1;P1;durP2;ratioP2;P2;SDS_P1;SDS_P2;PMS_P1;PMS_P2;Temp;Humidity;BMP_temperature;BMP_pressure;BME280_temperature;BME280_humidity;BME280_pressure;Samples;Min_cycle;Max_cycle;Signal;HPM_P1;HPM_P2
2023/12/15 00:00:00;;;;;;;2.40;2.20;;;14.50;99.90;;;;;;5099980;28;20172;-92
2023/12/15 00:02:27;;;;;;;3.77;2.50;;;14.50;99.90;;;;;;5103362;28;20215;-91
2023/12/15 00:04:55;;;;;;;2.63;2.23;;;14.40;99.90;;;;;;5101958;28;20178;-92
2023/12/15 00:07:27;;;;;;;2.93;2.30;;;14.50;99.90;;;;;;5102347;28;20207;-91
2023/12/15 00:09:56;;;;;;;2.73;1.97;;;14.50;99.90;;;;;;5104448;28;20207;-92
2023/12/15 00:12:27;;;;;;;3.80;2.30;;;14.40;99.90;;;;;;5099153;28;20262;-91
2023/12/15 00:14:55;;;;;;;3.57;2.37;;;14.40;99.90;;;;;;5102649;28;20241;-91
2023/12/15 00:17:21;;;;;;;2.50;2.20;;;14.40;99.90;;;;;;5098445;28;20186;-91
2023/12/15 00:19:49;;;;;;;4.17;2.37;;;14.40;99.90;;;;;;5101738;28;20483;-92
2023/12/15 00:22:16;;;;;;;2.80;2.50;;;14.40;99.90;;;;;;5103698;28;20202;-92
2023/12/15 00:24:45;;;;;;;4.27;2.67;;;14.40;99.90;;;;;;5105785;28;20175;-91
2023/12/15 00:27:11;;;;;;;2.83;2.30;;;14.40;99.90;;;;;;5099635;28;20179;-91
2023/12/15 00:29:36;;;;;;;2.30;2.10;;;14.40;99.90;;;;;;5104150;28;20257;-91
2023/12/15 00:32:06;;;;;;;2.30;2.07;;;14.40;99.90;;;;;;5099684;28;20205;-91
2023/12/15 00:34:35;;;;;;;2.33;2.13;;;14.40;99.90;;;;;;5101643;28;20175;-91
2023/12/15 00:37:03;;;;;;;3.30;2.33;;;14.40;99.90;;;;;;5102483;28;20171;-91
2023/12/15 00:39:30;;;;;;;2.37;2.10;;;14.40;99.90;;;;;;5090771;28;20182;-91
2023/12/15 00:41:57;;;;;;;2.40;2.07;;;14.40;99.90;;;;;;5100499;28;20182;-91
2023/12/15 00:44:23;;;;;;;3.07;2.37;;;14.40;99.90;;;;;;5096869;28;20221;-92
2023/12/15 00:46:48;;;;;;;2.57;2.37;;;14.40;99.90;;;;;;5101350;28;20293;-91
2023/12/15 00:49:14;;;;;;;3.10;2.27;;;14.40;99.90;;;;;;5101505;28;20353;-90
2023/12/15 00:51:43;;;;;;;2.50;2.03;;;14.40;99.90;;;;;;5102510;28;20609;-92
2023/12/15 00:54:11;;;;;;;3.00;2.53;;;14.40;99.90;;;;;;5115538;28;20176;-91
2023/12/15 00:56:37;;;;;;;2.97;2.67;;;14.40;99.90;;;;;;5101749;28;20171;-91
2023/12/15 00:59:04;;;;;;;2.77;2.30;;;14.40;99.90;;;;;;5106108;28;20171;-91
2023/12/15 01:01:34;;;;;;;3.07;2.50;;;14.40;99.90;;;;;;5100031;28;20204;-91
2023/12/15 01:04:02;;;;;;;2.50;2.20;;;14.40;99.90;;;;;;5097404;28;20168;-91
2023/12/15 01:06:29;;;;;;;2.93;2.40;;;14.40;99.90;;;;;;5100088;28;20166;-92
2023/12/15 01:08:54;;;;;;;3.27;2.33;;;14.40;99.90;;;;;;5097248;28;20204;-91
2023/12/15 01:11:20;;;;;;;3.10;2.40;;;14.40;99.90;;;;;;5102783;28;20208;-91
2023/12/15 01:13:49;;;;;;;2.83;2.47;;;14.40;99.90;;;;;;5103241;28;20199;-91
2023/12/15 01:16:17;;;;;;;3.30;2.43;;;14.40;99.90;;;;;;5096067;28;20190;-91
2023/12/15 01:18:46;;;;;;;2.50;2.23;;;14.40;99.90;;;;;;5100925;28;20182;-92
2023/12/15 01:21:15;;;;;;;2.77;2.20;;;14.40;99.90;;;;;;5099174;28;20351;-92
2023/12/15 01:23:40;;;;;;;3.77;2.80;;;14.40;99.90;;;;;;5095304;28;20588;-91
2023/12/15 01:26:09;;;;;;;2.40;2.10;;;14.40;99.90;;;;;;5116455;28;20265;-91
2023/12/15 01:28:37;;;;;;;2.77;2.27;;;14.40;99.90;;;;;;5098465;28;20192;-92
2023/12/15 01:31:04;;;;;;;2.63;2.10;;;14.40;99.90;;;;;;5095699;28;20163;-91
2023/12/15 01:33:33;;;;;;;2.60;2.37;;;14.40;99.90;;;;;;5094472;28;20451;-92
2023/12/15 01:35:59;;;;;;;2.20;2.00;;;14.40;99.90;;;;;;5095324;28;20175;-91
2023/12/15 01:38:28;;;;;;;2.37;2.17;;;14.40;99.90;;;;;;5093741;28;20171;-92
2023/12/15 01:40:58;;;;;;;2.50;2.13;;;14.40;99.90;;;;;;5093221;28;20262;-91
2023/12/15 01:43:23;;;;;;;2.50;2.30;;;14.40;99.90;;;;;;5094164;28;20552;-92
2023/12/15 01:45:52;;;;;;;3.93;2.30;;;14.40;99.90;;;;;;5095341;28;20198;-92
2023/12/15 01:48:18;;;;;;;2.40;2.07;;;14.40;99.90;;;;;;5114685;28;20267;-92
2023/12/15 01:50:46;;;;;;;2.33;2.10;;;14.40;99.90;;;;;;5093804;28;20297;-92
2023/12/15 01:53:15;;;;;;;2.90;2.53;;;14.40;99.90;;;;;;5097639;28;20238;-92
2023/12/15 01:55:41;;;;;;;2.40;2.20;;;14.40;99.90;;;;;;5094348;28;20174;-91
2023/12/15 01:58:13;;;;;;;3.10;2.23;;;14.40;99.90;;;;;;5096894;28;20189;-92
2023/12/15 02:00:41;;;;;;;2.53;2.27;;;14.40;99.90;;;;;;5110366;28;20205;-92
2023/12/15 02:03:10;;;;;;;2.17;1.97;;;14.40;99.90;;;;;;5096999;28;20205;-92
2023/12/15 02:05:36;;;;;;;3.07;2.20;;;14.40;99.90;;;;;;5092198;28;20188;-92
2023/12/15 02:08:05;;;;;;;2.67;2.20;;;14.40;99.90;;;;;;5094516;28;20177;-92
2023/12/15 02:10:38;;;;;;;2.33;2.13;;;14.40;99.90;;;;;;5095373;28;20187;-92
2023/12/15 02:13:07;;;;;;;2.30;2.10;;;14.40;99.90;;;;;;5099025;28;20208;-92
2023/12/15 02:15:33;;;;;;;2.20;2.00;;;14.40;99.90;;;;;;5093402;28;20200;-92
2023/12/15 02:18:02;;;;;;;2.43;2.00;;;14.40;99.90;;;;;;5095230;28;20192;-91
2023/12/15 02:20:31;;;;;;;2.70;2.10;;;14.40;99.90;;;;;;5095776;28;20170;-92
2023/12/15 02:22:59;;;;;;;2.60;2.00;;;14.40;99.90;;;;;;5081556;28;20181;-92
2023/12/15 02:25:32;;;;;;;2.47;2.20;;;14.40;99.90;;;;;;5096652;28;20201;-91
2023/12/15 02:28:00;;;;;;;2.37;2.10;;;14.40;99.90;;;;;;5094041;28;20177;-92
2023/12/15 02:30:26;;;;;;;3.23;2.10;;;14.40;99.90;;;;;;5094371;28;20337;-91
2023/12/15 02:32:53;;;;;;;2.30;1.90;;;14.40;99.90;;;;;;5094454;28;20199;-92
2023/12/15 02:35:22;;;;;;;2.37;2.03;;;14.40;99.90;;;;;;5094904;28;20288;-92
2023/12/15 02:37:47;;;;;;;2.20;2.00;;;14.40;99.90;;;;;;5095320;28;20178;-92
2023/12/15 02:40:13;;;;;;;3.37;2.20;;;14.40;99.90;;;;;;5108664;28;20158;-92
2023/12/15 02:42:39;;;;;;;2.23;2.03;;;14.40;99.90;;;;;;5118167;27;20200;-91
2023/12/15 02:45:08;;;;;;;2.47;1.80;;;14.40;99.90;;;;;;5115095;28;20206;-92
2023/12/15 02:47:34;;;;;;;2.47;1.97;;;14.40;99.90;;;;;;5115168;28;20171;-91
2023/12/15 02:50:02;;;;;;;2.30;2.10;;;14.40;99.90;;;;;;5108788;28;20523;-91
2023/12/15 02:52:29;;;;;;;2.30;1.90;;;14.40;99.90;;;;;;5098055;28;20211;-91
2023/12/15 02:54:55;;;;;;;2.13;1.80;;;14.40;99.90;;;;;;5092657;28;20178;-91
2023/12/15 02:57:24;;;;;;;2.80;2.10;;;14.40;99.90;;;;;;5096616;28;20170;-92
2023/12/15 02:59:53;;;;;;;3.53;2.07;;;14.40;99.90;;;;;;5092002;28;20192;-91
2023/12/15 03:02:23;;;;;;;2.50;2.07;;;14.40;99.90;;;;;;5092939;28;20190;-92
2023/12/15 03:04:51;;;;;;;2.10;1.90;;;14.40;99.90;;;;;;5095008;28;20489;-92
2023/12/15 03:07:20;;;;;;;2.87;2.23;;;14.40;99.90;;;;;;5099046;28;20268;-92
2023/12/15 03:09:48;;;;;;;2.50;2.20;;;14.40;99.90;;;;;;5099803;28;20436;-92
2023/12/15 03:12:17;;;;;;;2.50;2.13;;;14.40;99.90;;;;;;5100099;28;20209;-91
2023/12/15 03:14:52;;;;;;;2.50;2.30;;;14.40;99.90;;;;;;5100008;28;20174;-91
2023/12/15 03:17:18;;;;;;;2.50;2.30;;;14.40;99.90;;;;;;5099278;28;20182;-91
2023/12/15 03:19:44;;;;;;;2.43;2.00;;;14.40;99.90;;;;;;5096435;28;20185;-91
2023/12/15 03:22:13;;;;;;;2.40;2.20;;;14.40;99.90;;;;;;5096798;28;20341;-92
2023/12/15 03:24:42;;;;;;;2.63;2.23;;;14.40;99.90;;;;;;5117249;28;20176;-91
2023/12/15 03:27:07;;;;;;;2.43;2.23;;;14.40;99.90;;;;;;5102882;28;20231;-91
2023/12/15 03:29:36;;;;;;;3.27;2.30;;;14.40;99.90;;;;;;5100185;28;20217;-91
2023/12/15 03:32:07;;;;;;;2.50;2.30;;;14.40;99.90;;;;;;5100343;28;20231;-92
2023/12/15 03:34:39;;;;;;;2.77;2.10;;;14.40;99.90;;;;;;5103411;28;20199;-92
2023/12/15 03:37:05;;;;;;;2.67;2.20;;;14.40;99.90;;;;;;5103681;28;20171;-92
2023/12/15 03:39:37;;;;;;;2.33;2.13;;;14.40;99.90;;;;;;5103517;28;20193;-92
2023/12/15 03:42:08;;;;;;;2.40;2.00;;;14.40;99.90;;;;;;5103542;28;20618;-92
2023/12/15 03:44:39;;;;;;;2.93;2.20;;;14.40;99.90;;;;;;5103772;28;20183;-92
2023/12/15 03:47:06;;;;;;;1.93;1.80;;;14.40;99.90;;;;;;5103049;28;20174;-92
2023/12/15 03:49:32;;;;;;;2.30;2.10;;;14.40;99.90;;;;;;5099855;28;20452;-92
2023/12/15 03:51:58;;;;;;;2.57;2.00;;;14.40;99.90;;;;;;5099800;28;20202;-92
2023/12/15 03:54:24;;;;;;;2.10;1.90;;;14.50;99.90;;;;;;5111375;28;20171;-92
2023/12/15 03:57:00;;;;;;;2.27;2.07;;;14.40;99.90;;;;;;5102338;28;20224;-92
2023/12/15 03:59:30;;;;;;;2.67;2.27;;;14.40;99.90;;;;;;5102301;28;20171;-92
2023/12/15 04:01:59;;;;;;;2.10;1.90;;;14.40;99.90;;;;;;5103004;28;20172;-91
2023/12/15 04:04:27;;;;;;;2.60;2.00;;;14.40;99.90;;;;;;5099259;28;20171;-92
2023/12/15 04:06:56;;;;;;;2.20;2.00;;;14.40;99.90;;;;;;5099670;28;20185;-92
2023/12/15 04:09:22;;;;;;;2.47;2.20;;;14.40;99.90;;;;;;5099392;28;20183;-92
2023/12/15 04:11:53;;;;;;;2.30;2.10;;;14.40;99.90;;;;;;5099306;28;20175;-92
2023/12/15 04:14:19;;;;;;;2.30;2.10;;;14.40;99.90;;;;;;5099026;28;20178;-92
2023/12/15 04:16:45;;;;;;;2.37;2.10;;;14.40;99.90;;;;;;5099311;28;20183;-92
2023/12/15 04:19:14;;;;;;;3.67;2.00;;;14.40;99.90;;;;;;5099245;28;20170;-93
2023/12/15 04:21:40;;;;;;;2.70;2.10;;;14.40;99.90;;;;;;5099085;28;20206;-92
2023/12/15 04:24:13;;;;;;;2.50;2.00;;;14.40;99.90;;;;;;5100026;28;20174;-92
2023/12/15 04:26:39;;;;;;;2.47;1.90;;;14.40;99.80;;;;;;5098314;28;20208;-92
2023/12/15 04:29:07;;;;;;;2.23;2.03;;;14.40;99.90;;;;;;5098911;28;20197;-92
2023/12/15 04:31:36;;;;;;;2.83;2.10;;;14.40;99.90;;;;;;5097624;28;20168;-92
2023/12/15 04:34:06;;;;;;;2.77;1.87;;;14.40;99.90;;;;;;5098001;28;20189;-92
2023/12/15 04:36:35;;;;;;;2.80;2.23;;;14.40;99.90;;;;;;5101361;28;20205;-92
2023/12/15 04:39:04;;;;;;;2.60;1.93;;;14.40;99.90;;;;;;5101424;28;20239;-93
2023/12/15 04:41:32;;;;;;;2.90;1.80;;;14.40;99.90;;;;;;5098060;28;20209;-93
2023/12/15 04:44:04;;;;;;;2.20;2.00;;;14.40;99.90;;;;;;5097834;28;20171;-92
2023/12/15 04:46:31;;;;;;;2.77;1.90;;;14.40;99.90;;;;;;5100717;28;20186;-93
2023/12/15 04:49:01;;;;;;;2.23;2.00;;;14.40;99.90;;;;;;5101024;28;20175;-93
2023/12/15 04:51:30;;;;;;;2.10;1.90;;;14.40;99.90;;;;;;5101024;28;20179;-92
2023/12/15 04:53:56;;;;;;;2.10;1.70;;;14.40;99.90;;;;;;5101877;28;20203;-92
2023/12/15 04:56:25;;;;;;;2.50;2.07;;;14.50;99.90;;;;;;5097620;28;20257;-92
2023/12/15 04:59:14;;;;;;;2.10;1.90;;;14.70;99.60;;;;;;5101427;28;20181;-92
2023/12/15 05:04:33;;;;;;;2.27;2.03;;;15.10;98.60;;;;;;5097412;28;20242;-92
2023/12/15 05:06:59;;;;;;;2.20;1.90;;;15.30;98.00;;;;;;5100369;28;20171;-92
2023/12/15 05:09:28;;;;;;;2.30;1.80;;;15.50;97.60;;;;;;5099706;28;20167;-92
2023/12/15 05:11:57;;;;;;;2.67;2.00;;;15.50;97.30;;;;;;5099547;28;20166;-92
2023/12/15 05:14:23;;;;;;;2.17;1.87;;;15.60;97.10;;;;;;5099901;28;20179;-92
2023/12/15 05:16:48;;;;;;;2.33;1.87;;;15.60;96.90;;;;;;5081848;28;20186;-92
2023/12/15 05:19:14;;;;;;;2.57;2.13;;;15.50;97.00;;;;;;5099079;28;20181;-92
2023/12/15 05:21:40;;;;;;;2.33;2.00;;;15.50;97.10;;;;;;5096154;28;20200;-92
2023/12/15 05:24:09;;;;;;;5.93;2.00;;;15.50;97.20;;;;;;5098704;28;20191;-92
2023/12/15 05:26:37;;;;;;;2.00;1.80;;;15.40;97.40;;;;;;5094869;28;20177;-92
2023/12/15 05:29:06;;;;;;;2.23;1.87;;;15.20;97.80;;;;;;5098542;28;20166;-92
2023/12/15 05:31:34;;;;;;;2.53;1.83;;;15.10;98.10;;;;;;5095578;28;20235;-92
2023/12/15 05:34:02;;;;;;;2.57;1.90;;;15.10;98.20;;;;;;5098003;28;20208;-92
2023/12/15 05:36:28;;;;;;;3.00;1.90;;;15.00;98.40;;;;;;5097465;28;20800;-92
2023/12/15 05:39:00;;;;;;;2.13;1.93;;;15.00;98.50;;;;;;5098140;28;20262;-92
2023/12/15 05:41:29;;;;;;;3.00;2.10;;;14.90;98.60;;;;;;5096987;28;20181;-92
2023/12/15 05:43:55;;;;;;;3.57;2.07;;;14.90;98.70;;;;;;5094884;28;20277;-93
2023/12/15 05:46:23;;;;;;;3.23;2.03;;;14.90;98.70;;;;;;5094757;28;20272;-92
2023/12/15 05:48:52;;;;;;;2.63;1.97;;;14.90;98.80;;;;;;5093562;28;20457;-92
2023/12/15 05:51:18;;;;;;;3.47;1.80;;;14.80;98.80;;;;;;5093706;28;20167;-93
2023/12/15 05:53:46;;;;;;;2.07;1.70;;;14.80;98.90;;;;;;5095667;28;20193;-92
2023/12/15 05:56:15;;;;;;;2.63;1.80;;;14.80;99.00;;;;;;5097309;28;20170;-92
2023/12/15 05:58:43;;;;;;;3.40;1.90;;;14.80;99.00;;;;;;5093871;28;20168;-92
2023/12/15 06:01:17;;;;;;;2.20;1.80;;;14.80;99.10;;;;;;5096905;28;20460;-92
2023/12/15 06:03:46;;;;;;;3.23;1.97;;;14.80;99.10;;;;;;5093901;28;20246;-91
2023/12/15 06:06:12;;;;;;;2.17;1.90;;;14.70;99.10;;;;;;5092806;28;20168;-91
2023/12/15 06:08:40;;;;;;;5.20;2.03;;;14.70;99.10;;;;;;5091495;28;20176;-92
2023/12/15 06:11:09;;;;;;;2.50;2.00;;;14.70;99.10;;;;;;5092568;28;20175;-92
2023/12/15 06:13:41;;;;;;;3.87;2.23;;;14.70;99.20;;;;;;5090654;28;20199;-92
2023/12/15 06:16:21;;;;;;;2.90;2.00;;;14.70;99.20;;;;;;5090456;28;20167;-92
2023/12/15 06:18:49;;;;;;;3.80;2.03;;;14.70;99.30;;;;;;5094265;28;20171;-92
2023/12/15 06:21:25;;;;;;;2.93;1.90;;;14.70;99.30;;;;;;5093001;28;20187;-92
2023/12/15 06:23:53;;;;;;;3.20;2.20;;;14.60;99.40;;;;;;5094331;28;20173;-92
2023/12/15 06:26:24;;;;;;;3.60;2.20;;;14.60;99.40;;;;;;5090341;28;20204;-92
2023/12/15 06:28:50;;;;;;;2.77;1.83;;;14.60;99.60;;;;;;5091254;28;20200;-91
2023/12/15 06:31:19;;;;;;;3.17;2.13;;;14.60;99.70;;;;;;5092527;28;20172;-92
2023/12/15 06:33:46;;;;;;;2.87;2.07;;;14.60;99.80;;;;;;5096836;28;20201;-92
2023/12/15 06:36:12;;;;;;;2.77;1.80;;;14.60;99.90;;;;;;5091555;28;20168;-92
2023/12/15 06:38:44;;;;;;;3.07;2.00;;;14.60;99.90;;;;;;5092334;28;20169;-92
2023/12/15 06:41:11;;;;;;;4.90;2.20;;;14.60;99.90;;;;;;5095493;28;20169;-92
2023/12/15 06:43:53;;;;;;;2.87;1.97;;;14.70;99.90;;;;;;5093558;28;20759;-92
2023/12/15 06:46:22;;;;;;;4.60;2.00;;;14.70;99.90;;;;;;5068961;28;20171;-92
2023/12/15 06:48:53;;;;;;;3.27;2.20;;;14.70;99.90;;;;;;5090225;28;20172;-92
2023/12/15 06:51:20;;;;;;;3.87;2.20;;;14.70;99.90;;;;;;5087682;28;20175;-92
2023/12/15 06:53:49;;;;;;;3.93;2.10;;;14.70;99.90;;;;;;5088130;28;20294;-92
2023/12/15 06:56:14;;;;;;;2.63;2.00;;;14.80;99.90;;;;;;5088917;28;20173;-92
2023/12/15 06:58:40;;;;;;;2.57;1.80;;;14.80;99.90;;;;;;5103883;28;20232;-92
2023/12/15 07:01:07;;;;;;;3.80;2.10;;;14.80;99.90;;;;;;5085408;28;20168;-92
2023/12/15 07:03:36;;;;;;;3.97;2.17;;;14.80;99.90;;;;;;5055553;28;20433;-92
2023/12/15 07:06:01;;;;;;;3.23;2.20;;;14.80;99.90;;;;;;5086496;28;20220;-92
2023/12/15 07:08:30;;;;;;;3.63;2.47;;;14.80;99.90;;;;;;5088046;28;20179;-91
2023/12/15 07:10:59;;;;;;;3.27;2.40;;;14.80;99.90;;;;;;5091389;28;20468;-92
2023/12/15 07:13:27;;;;;;;3.17;2.50;;;14.80;99.90;;;;;;5088492;28;20202;-92
2023/12/15 07:15:58;;;;;;;4.13;2.33;;;14.80;99.90;;;;;;5090053;28;20168;-92
2023/12/15 07:18:27;;;;;;;5.73;2.50;;;14.80;99.90;;;;;;5087408;28;20223;-92
2023/12/15 07:20:57;;;;;;;3.17;2.33;;;14.80;99.90;;;;;;5088780;28;20239;-92
2023/12/15 07:23:26;;;;;;;7.97;2.90;;;14.80;99.90;;;;;;5083858;28;20184;-92
2023/12/15 07:25:58;;;;;;;3.83;2.93;;;14.80;99.90;;;;;;5084980;28;20556;-92
2023/12/15 07:28:27;;;;;;;3.30;2.63;;;14.80;99.90;;;;;;5083984;28;20226;-92
2023/12/15 07:30:53;;;;;;;5.53;2.80;;;14.80;99.90;;;;;;5087099;28;20276;-92
2023/12/15 07:33:21;;;;;;;4.07;2.90;;;14.80;99.90;;;;;;5087525;28;20204;-92
2023/12/15 07:35:48;;;;;;;3.07;2.67;;;14.70;99.90;;;;;;5091426;28;20325;-92
2023/12/15 07:38:17;;;;;;;10.53;4.20;;;14.80;99.90;;;;;;5087804;28;20198;-92
2023/12/15 07:40:43;;;;;;;5.20;3.10;;;14.80;99.90;;;;;;5089214;28;20205;-92
2023/12/15 07:43:11;;;;;;;6.60;3.20;;;14.80;99.90;;;;;;5093470;28;20172;-92
2023/12/15 07:45:38;;;;;;;4.63;2.73;;;14.70;99.90;;;;;;5092382;28;20193;-92
2023/12/15 07:48:07;;;;;;;6.27;3.00;;;14.70;99.90;;;;;;5089495;28;20193;-92
2023/12/15 07:50:33;;;;;;;5.47;2.70;;;14.70;99.90;;;;;;5090678;28;20185;-92
2023/12/15 07:52:59;;;;;;;3.93;2.97;;;14.70;99.90;;;;;;5087504;28;20348;-92
2023/12/15 07:55:27;;;;;;;8.27;2.73;;;14.70;99.90;;;;;;5089930;28;20436;-92
2023/12/15 07:57:56;;;;;;;4.30;2.90;;;14.70;99.90;;;;;;5086306;28;20170;-92
2023/12/15 08:00:25;;;;;;;6.57;3.37;;;14.70;99.90;;;;;;5098202;28;20627;-92
2023/12/15 08:02:50;;;;;;;2.87;2.57;;;14.70;99.90;;;;;;5086405;28;20169;-92
2023/12/15 08:05:20;;;;;;;2.87;2.50;;;14.70;99.90;;;;;;5106041;28;20168;-92
2023/12/15 08:07:46;;;;;;;4.20;3.03;;;14.70;99.90;;;;;;5089398;28;20451;-91
2023/12/15 08:10:14;;;;;;;5.13;2.93;;;14.70;99.90;;;;;;5092087;28;20226;-92
2023/12/15 08:12:40;;;;;;;4.03;2.83;;;14.70;99.90;;;;;;5089004;28;20207;-92
2023/12/15 08:15:07;;;;;;;3.80;2.80;;;14.70;99.90;;;;;;5088423;28;20407;-92
2023/12/15 08:17:33;;;;;;;4.53;2.87;;;14.70;99.90;;;;;;5093117;28;20195;-92
2023/12/15 08:19:59;;;;;;;4.10;2.80;;;14.70;99.90;;;;;;5096833;28;20595;-92
2023/12/15 08:22:25;;;;;;;3.20;2.80;;;14.80;99.90;;;;;;5089299;28;20370;-92
2023/12/15 08:24:52;;;;;;;3.73;2.70;;;14.80;99.90;;;;;;5091070;28;20183;-91
2023/12/15 08:27:21;;;;;;;3.40;2.47;;;14.80;99.90;;;;;;5089871;28;20360;-92
2023/12/15 08:29:47;;;;;;;3.53;2.70;;;14.80;99.90;;;;;;5096935;28;20171;-92
2023/12/15 08:32:12;;;;;;;3.37;2.87;;;14.80;99.90;;;;;;5106448;28;20233;-92
2023/12/15 08:34:39;;;;;;;4.07;3.00;;;14.80;99.90;;;;;;5099328;28;20481;-92
2023/12/15 08:37:08;;;;;;;5.17;3.00;;;14.80;99.90;;;;;;5084413;28;20165;-92
2023/12/15 08:39:37;;;;;;;3.57;2.77;;;14.80;99.90;;;;;;5088114;28;20274;-92
2023/12/15 08:42:06;;;;;;;3.43;2.83;;;14.80;99.90;;;;;;5089445;28;20192;-92
2023/12/15 08:44:35;;;;;;;5.30;3.10;;;14.80;99.90;;;;;;5088944;28;20578;-92
2023/12/15 08:47:01;;;;;;;3.33;2.83;;;14.80;99.90;;;;;;5069822;28;20175;-92
2023/12/15 08:49:27;;;;;;;2.90;2.40;;;14.80;99.90;;;;;;5081154;28;20175;-92
2023/12/15 08:51:53;;;;;;;3.83;3.07;;;14.80;99.90;;;;;;5083989;28;20481;-92
2023/12/15 08:54:18;;;;;;;4.97;2.77;;;14.80;99.90;;;;;;5067590;28;20279;-92
2023/12/15 08:56:47;;;;;;;3.93;2.97;;;14.80;99.90;;;;;;5100586;28;20178;-92
2023/12/15 08:59:14;;;;;;;4.40;2.83;;;14.80;99.90;;;;;;5084616;28;20198;-92
2023/12/15 09:01:40;;;;;;;4.50;3.00;;;14.80;99.90;;;;;;5088155;28;20171;-92
2023/12/15 09:04:09;;;;;;;3.63;2.93;;;14.80;99.90;;;;;;5090036;28;20423;-92
2023/12/15 09:06:37;;;;;;;3.10;2.70;;;14.80;99.90;;;;;;5088486;28;20217;-92
2023/12/15 09:09:07;;;;;;;3.40;2.97;;;14.80;99.90;;;;;;5101691;28;20430;-92
2023/12/15 09:11:37;;;;;;;4.23;2.77;;;14.80;99.90;;;;;;5073972;28;20179;-92
2023/12/15 09:14:03;;;;;;;4.57;2.90;;;14.80;99.90;;;;;;5088242;28;20610;-92
2023/12/15 09:16:37;;;;;;;3.67;3.10;;;14.80;99.90;;;;;;5090341;28;20169;-93
2023/12/15 09:19:08;;;;;;;4.80;3.03;;;14.80;99.90;;;;;;5088112;28;20659;-92
2023/12/15 09:21:40;;;;;;;4.73;3.13;;;14.70;99.90;;;;;;5090320;28;20211;-92
2023/12/15 09:24:08;;;;;;;5.50;2.90;;;14.70;99.90;;;;;;5089805;28;20258;-92
2023/12/15 09:26:38;;;;;;;4.03;2.93;;;14.70;99.90;;;;;;5092550;28;20461;-92
2023/12/15 09:29:04;;;;;;;3.80;2.63;;;14.70;99.90;;;;;;5090390;28;20177;-93
2023/12/15 09:31:34;;;;;;;3.97;3.13;;;14.70;99.90;;;;;;5087533;28;20209;-93
2023/12/15 09:34:03;;;;;;;4.27;3.10;;;14.70;99.90;;;;;;5090339;28;20266;-92
2023/12/15 09:36:29;;;;;;;4.80;3.10;;;14.70;99.90;;;;;;5086996;28;20329;-92
2023/12/15 09:38:58;;;;;;;3.23;2.67;;;14.70;99.90;;;;;;5090875;28;20443;-92
2023/12/15 09:41:25;;;;;;;3.60;3.00;;;14.70;99.90;;;;;;5088231;28;20290;-92
2023/12/15 09:43:54;;;;;;;3.30;2.63;;;14.80;99.90;;;;;;5086547;28;20283;-92
2023/12/15 09:46:24;;;;;;;3.80;2.77;;;14.80;99.90;;;;;;5090049;28;20163;-92
2023/12/15 09:48:56;;;;;;;4.20;3.23;;;14.80;99.90;;;;;;5085205;28;20664;-92
2023/12/15 09:51:30;;;;;;;4.23;3.27;;;14.80;99.90;;;;;;5086666;28;20197;-92
2023/12/15 09:53:56;;;;;;;3.10;2.80;;;14.80;99.90;;;;;;5084944;28;20199;-92
2023/12/15 09:56:22;;;;;;;3.50;3.00;;;14.80;99.90;;;;;;5086658;28;20183;-92
2023/12/15 09:58:48;;;;;;;5.50;3.30;;;14.80;99.90;;;;;;5087415;28;20772;-92
2023/12/15 10:01:13;;;;;;;3.57;2.93;;;14.90;99.90;;;;;;5084335;28;20231;-92
2023/12/15 10:03:39;;;;;;;7.90;3.83;;;14.90;99.90;;;;;;5085151;28;20227;-92
2023/12/15 10:06:08;;;;;;;4.97;3.07;;;14.90;99.90;;;;;;5084445;28;20547;-92
2023/12/15 10:08:59;;;;;;;4.90;3.40;;;14.90;99.90;;;;;;5086898;28;20584;-91
2023/12/15 10:11:33;;;;;;;4.60;3.10;;;14.90;99.90;;;;;;5039903;28;20312;-92
2023/12/15 10:14:04;;;;;;;4.83;3.10;;;14.90;99.90;;;;;;5086480;28;20195;-92
2023/12/15 10:16:31;;;;;;;4.40;3.53;;;14.90;99.90;;;;;;5086498;28;20174;-92
2023/12/15 10:18:57;;;;;;;4.07;3.00;;;14.90;99.90;;;;;;5086214;28;20244;-92
2023/12/15 10:21:23;;;;;;;6.27;3.37;;;14.90;99.90;;;;;;5084622;28;20166;-92
2023/12/15 10:23:52;;;;;;;4.93;3.63;;;14.90;99.90;;;;;;5086089;28;20174;-92
2023/12/15 10:26:22;;;;;;;6.37;3.47;;;14.90;99.90;;;;;;5085792;28;20166;-92
2023/12/15 10:28:48;;;;;;;7.33;3.63;;;14.90;99.90;;;;;;5086440;28;20173;-92
2023/12/15 10:31:13;;;;;;;6.70;3.50;;;14.90;99.90;;;;;;5086786;28;20177;-92
2023/12/15 10:33:45;;;;;;;6.60;3.87;;;14.90;99.90;;;;;;5089693;28;20199;-92
2023/12/15 10:36:15;;;;;;;5.23;3.50;;;14.90;99.90;;;;;;5086957;28;20285;-92
2023/12/15 10:38:44;;;;;;;10.83;3.47;;;14.80;99.90;;;;;;5088630;28;20566;-92
2023/12/15 10:41:17;;;;;;;5.97;3.80;;;14.80;99.90;;;;;;5087912;28;20273;-92
2023/12/15 10:43:50;;;;;;;5.10;3.57;;;14.80;99.90;;;;;;5086855;28;20273;-92
2023/12/15 10:46:18;;;;;;;6.53;4.00;;;14.80;99.90;;;;;;5096309;28;20224;-92
2023/12/15 10:48:54;;;;;;;6.10;3.53;;;14.80;99.90;;;;;;5094375;28;20207;-92
2023/12/15 10:51:21;;;;;;;5.50;3.83;;;14.80;99.90;;;;;;5091826;28;20254;-92
2023/12/15 10:53:48;;;;;;;4.40;3.57;;;14.80;99.90;;;;;;5088146;28;20750;-92
2023/12/15 10:56:15;;;;;;;13.20;4.07;;;14.80;99.90;;;;;;5082546;28;20200;-92
2023/12/15 10:58:42;;;;;;;5.23;3.50;;;14.80;99.90;;;;;;5085360;28;20192;-92
2023/12/15 11:01:10;;;;;;;5.40;3.80;;;14.80;99.90;;;;;;5083837;28;20547;-92
2023/12/15 11:03:41;;;;;;;5.60;3.83;;;14.80;99.90;;;;;;5085723;28;20557;-92
2023/12/15 11:06:08;;;;;;;5.37;3.60;;;14.80;99.90;;;;;;5088026;28;20170;-91
2023/12/15 11:08:34;;;;;;;5.47;3.27;;;14.80;99.90;;;;;;5085620;28;20174;-92
2023/12/15 11:11:09;;;;;;;7.83;3.70;;;14.80;99.90;;;;;;5087115;28;20249;-92
2023/12/15 11:14:01;;;;;;;8.13;3.67;;;14.80;99.90;;;;;;5087996;28;20257;-91
2023/12/15 11:16:38;;;;;;;6.43;3.30;;;14.80;99.90;;;;;;5087464;28;20666;-92
2023/12/15 11:19:07;;;;;;;7.07;3.83;;;14.80;99.90;;;;;;5083106;28;20511;-91
2023/12/15 11:21:33;;;;;;;5.37;3.60;;;14.80;99.90;;;;;;5086308;28;20176;-91
2023/12/15 11:24:07;;;;;;;6.00;3.93;;;14.90;99.90;;;;;;5081163;28;20469;-91
2023/12/15 11:26:38;;;;;;;5.77;3.93;;;14.90;99.90;;;;;;5093838;28;20162;-91
2023/12/15 11:29:09;;;;;;;6.00;3.70;;;14.90;99.90;;;;;;5084509;28;20264;-91
2023/12/15 11:31:40;;;;;;;5.10;3.80;;;14.90;99.90;;;;;;5080815;28;20284;-92
2023/12/15 11:34:07;;;;;;;5.03;3.43;;;14.90;99.90;;;;;;5082484;28;20199;-92
2023/12/15 11:36:46;;;;;;;4.73;3.80;;;14.90;99.90;;;;;;5078636;28;20177;-92
2023/12/15 11:39:15;;;;;;;5.93;3.67;;;15.00;99.90;;;;;;5080626;28;20205;-92
2023/12/15 11:41:42;;;;;;;5.97;3.40;;;15.00;99.90;;;;;;5101190;28;20173;-91
2023/12/15 11:44:11;;;;;;;6.03;3.57;;;15.00;99.90;;;;;;5085108;28;20206;-91
2023/12/15 11:46:39;;;;;;;6.67;3.60;;;15.00;99.90;;;;;;5081258;28;20243;-91
2023/12/15 11:49:05;;;;;;;4.30;3.17;;;15.00;99.90;;;;;;5086691;28;20175;-91
2023/12/15 11:51:31;;;;;;;6.10;4.10;;;15.00;99.90;;;;;;5085712;28;20215;-91
2023/12/15 11:54:03;;;;;;;7.63;4.43;;;15.00;99.90;;;;;;5086254;28;20305;-92
2023/12/15 11:56:32;;;;;;;6.87;3.40;;;15.00;99.90;;;;;;5089659;28;20408;-92
2023/12/15 11:58:58;;;;;;;5.73;3.77;;;15.00;99.90;;;;;;5087661;28;20222;-91
2023/12/15 12:01:26;;;;;;;4.43;3.50;;;15.00;99.90;;;;;;5088609;28;20383;-92
2023/12/15 12:03:52;;;;;;;4.37;3.53;;;15.00;99.90;;;;;;5088381;28;20168;-91
2023/12/15 12:06:22;;;;;;;5.00;3.37;;;15.00;99.90;;;;;;5086944;28;20276;-92
2023/12/15 12:08:48;;;;;;;6.10;3.83;;;15.00;99.90;;;;;;5084826;28;20372;-92
2023/12/15 12:11:16;;;;;;;7.53;4.07;;;15.00;99.90;;;;;;5083648;28;20226;-91
2023/12/15 12:13:50;;;;;;;4.07;3.63;;;15.00;99.90;;;;;;5084106;28;20241;-92
2023/12/15 12:16:20;;;;;;;4.13;3.70;;;15.00;99.90;;;;;;5080501;28;20568;-91
2023/12/15 12:18:49;;;;;;;5.00;3.67;;;15.00;99.90;;;;;;5084655;28;20238;-92
2023/12/15 12:21:19;;;;;;;5.07;3.97;;;15.00;99.90;;;;;;5083682;28;20331;-91
2023/12/15 12:23:46;;;;;;;5.47;3.50;;;15.00;99.90;;;;;;5086748;28;20447;-92
2023/12/15 12:26:18;;;;;;;3.97;3.37;;;14.90;99.90;;;;;;5082586;28;20172;-91
2023/12/15 12:28:50;;;;;;;7.87;3.90;;;14.90;99.90;;;;;;5084412;28;20202;-91
2023/12/15 12:31:19;;;;;;;5.03;3.70;;;14.90;99.90;;;;;;5083918;28;20251;-92
2023/12/15 12:33:45;;;;;;;4.53;3.53;;;15.00;99.90;;;;;;5086101;28;20214;-92
2023/12/15 12:36:11;;;;;;;5.43;4.10;;;15.00;99.90;;;;;;5086410;28;20176;-91
2023/12/15 12:38:37;;;;;;;5.90;4.03;;;15.00;99.90;;;;;;5083692;28;20182;-91
2023/12/15 12:41:06;;;;;;;5.87;3.63;;;15.00;99.90;;;;;;5088662;28;20200;-91
2023/12/15 12:43:33;;;;;;;4.60;3.80;;;14.90;99.90;;;;;;5087460;28;20211;-91
2023/12/15 12:46:04;;;;;;;4.90;3.93;;;14.90;99.90;;;;;;5086265;28;20554;-92
2023/12/15 12:48:30;;;;;;;4.73;3.50;;;14.90;99.90;;;;;;5086274;28;20193;-92
2023/12/15 12:51:02;;;;;;;5.93;3.80;;;14.90;99.90;;;;;;5088399;28;20174;-91
2023/12/15 12:53:27;;;;;;;4.67;3.63;;;15.00;99.90;;;;;;5089368;28;20628;-92